createdAt,value
2022-10-04T00:01:54.508Z,45.50
2022-10-04T00:04:26.832Z,44.51
2022-10-04T00:07:04.038Z,45.32
2022-10-04T00:09:37.573Z,44.79
2022-10-04T00:12:06.816Z,44.49
2022-10-04T00:14:38.494Z,45.09
2022-10-04T00:17:14.041Z,45.04
2022-10-04T00:19:45.553Z,44.73
2022-10-04T00:22:18.327Z,45.05
2022-10-04T00:25:20.612Z,45.69
2022-10-04T00:28:27.672Z,45.36
2022-10-04T00:31:13.782Z,45.39
2022-10-04T00:33:43.158Z,45.20
2022-10-04T00:36:41.348Z,46.05
2022-10-04T00:39:39.909Z,45.85
2022-10-04T00:42:44.829Z,45.71
2022-10-04T00:45:29.486Z,45.47
2022-10-04T00:48:19.246Z,45.42
2022-10-04T00:50:53.020Z,45.53
2022-10-04T00:53:37.795Z,45.23
2022-10-04T00:56:13.025Z,45.26
2022-10-04T00:59:04.787Z,45.77
2022-10-04T01:01:36.295Z,45.71
2022-10-04T01:04:07.905Z,45.37
2022-10-04T01:06:38.086Z,45.08
2022-10-04T01:09:10.391Z,45.76
2022-10-04T01:11:45.493Z,45.72
2022-10-04T01:14:22.209Z,45.16
2022-10-04T01:16:52.476Z,45.39
2022-10-04T01:19:30.676Z,45.62
2022-10-04T01:22:04.179Z,45.59
2022-10-04T01:24:37.315Z,45.95
2022-10-04T01:27:25.601Z,45.23
2022-10-04T01:29:53.478Z,45.66
2022-10-04T01:32:21.352Z,45.59
2022-10-04T01:34:49.232Z,45.69
2022-10-04T01:37:17.728Z,45.36
2022-10-04T01:39:47.241Z,45.16
2022-10-04T01:42:19.633Z,45.46
2022-10-04T01:44:53.727Z,45.55
2022-10-04T01:47:27.436Z,45.31
2022-10-04T01:49:59.934Z,45.52
2022-10-04T01:52:35.009Z,45.62
2022-10-04T01:55:07.870Z,45.75
2022-10-04T01:57:37.547Z,46.21
2022-10-04T02:00:08.850Z,45.61
2022-10-04T02:02:43.337Z,46.02
2022-10-04T02:05:14.704Z,45.58
2022-10-04T02:07:43.628Z,45.38
2022-10-04T02:10:18.565Z,45.61
2022-10-04T02:12:49.645Z,45.90
2022-10-04T02:15:21.399Z,45.58
2022-10-04T02:17:50.641Z,45.29
2022-10-04T02:20:21.373Z,45.68
2022-10-04T02:22:52.855Z,45.71
2022-10-04T02:25:22.510Z,45.74
2022-10-04T02:27:55.560Z,45.28
2022-10-04T02:30:24.578Z,45.36
2022-10-04T02:33:00.651Z,45.49
2022-10-04T02:35:35.624Z,45.72
2022-10-04T02:38:10.954Z,45.84
2022-10-04T02:40:46.444Z,45.46
2022-10-04T02:43:20.734Z,45.47
2022-10-04T02:45:54.097Z,45.63
2022-10-04T02:48:38.460Z,46.16
2022-10-04T02:51:25.562Z,46.31
2022-10-04T02:54:03.860Z,46.09
2022-10-04T02:56:34.512Z,45.64
2022-10-04T02:59:03.626Z,45.99
2022-10-04T03:01:46.898Z,46.35
2022-10-04T03:04:16.062Z,46.19
2022-10-04T03:06:46.777Z,46.02
2022-10-04T03:09:16.205Z,45.80
2022-10-04T03:11:46.517Z,46.29
2022-10-04T03:14:18.383Z,46.30
2022-10-04T03:16:48.577Z,45.95
2022-10-04T03:19:19.289Z,46.27
2022-10-04T03:21:49.464Z,45.98
2022-10-04T03:24:21.427Z,46.18
2022-10-04T03:26:55.307Z,46.39
2022-10-04T03:29:25.648Z,46.51
2022-10-04T03:31:58.128Z,46.51
2022-10-04T03:34:28.583Z,45.95
2022-10-04T03:36:58.750Z,46.47
2022-10-04T03:39:30.589Z,46.47
2022-10-04T03:42:04.257Z,46.66
2022-10-04T03:44:32.978Z,46.21
2022-10-04T03:47:01.437Z,46.43
2022-10-04T03:49:34.692Z,46.45
2022-10-04T03:52:04.084Z,46.25
2022-10-04T03:54:33.198Z,46.27
2022-10-04T03:57:03.398Z,46.21
2022-10-04T03:59:31.238Z,46.74
2022-10-04T04:02:07.144Z,46.75
2022-10-04T04:04:43.597Z,46.37
2022-10-04T04:07:14.957Z,46.88
2022-10-04T04:09:46.364Z,46.69
2022-10-04T04:12:20.834Z,46.61
2022-10-04T04:14:52.078Z,46.81
2022-10-04T04:17:39.072Z,47.04
2022-10-04T04:20:20.054Z,47.02
2022-10-04T04:23:00.658Z,46.98
2022-10-04T04:25:32.221Z,46.17
2022-10-04T04:28:08.636Z,46.50
2022-10-04T04:30:39.444Z,46.50
2022-10-04T04:33:20.352Z,46.78
2022-10-04T04:35:49.190Z,46.63
2022-10-04T04:38:24.236Z,47.07
2022-10-04T04:40:55.561Z,46.77
2022-10-04T04:43:27.494Z,46.50
2022-10-04T04:46:22.300Z,46.42
2022-10-04T04:48:47.716Z,46.39
2022-10-04T04:51:21.834Z,46.54
2022-10-04T04:53:50.919Z,46.07
2022-10-04T04:56:21.478Z,46.14
2022-10-04T04:58:53.702Z,46.35
2022-10-04T05:01:26.677Z,46.29
2022-10-04T05:04:02.231Z,46.98
2022-10-04T05:06:32.017Z,46.32
2022-10-04T05:08:59.806Z,46.69
2022-10-04T05:11:31.071Z,46.24
2022-10-04T05:14:05.820Z,46.59
2022-10-04T05:16:39.786Z,46.72
2022-10-04T05:19:13.025Z,46.90
2022-10-04T05:21:45.492Z,46.67
2022-10-04T05:24:20.722Z,46.44
2022-10-04T05:26:51.965Z,47.09
2022-10-04T05:29:24.093Z,46.85
2022-10-04T05:32:03.585Z,47.03
2022-10-04T05:34:39.907Z,46.70
2022-10-04T05:37:22.359Z,47.10
2022-10-04T05:39:58.534Z,46.62
2022-10-04T05:42:37.749Z,47.25
2022-10-04T05:45:15.286Z,46.81
2022-10-04T05:47:44.426Z,46.52
2022-10-04T05:50:18.640Z,46.83
2022-10-04T05:52:50.908Z,46.55
2022-10-04T05:55:27.090Z,47.16
2022-10-04T05:58:18.439Z,47.11
2022-10-04T06:01:08.616Z,47.11
2022-10-04T06:04:04.871Z,46.84
2022-10-04T06:06:40.757Z,47.16
2022-10-04T06:09:15.967Z,46.95
2022-10-04T06:11:55.711Z,46.85
2022-10-04T06:15:05.353Z,47.05
2022-10-04T06:17:58.637Z,47.34
2022-10-04T06:20:35.516Z,47.78
2022-10-04T06:23:12.939Z,46.69
2022-10-04T06:25:47.957Z,47.20
2022-10-04T06:28:23.852Z,47.17
2022-10-04T06:31:26.305Z,46.88
2022-10-04T06:34:23.083Z,47.39
2022-10-04T06:37:10.963Z,47.13
2022-10-04T06:39:58.481Z,47.86
2022-10-04T06:42:49.225Z,47.60
2022-10-04T06:45:44.513Z,47.65
2022-10-04T06:48:35.403Z,47.81
2022-10-04T06:51:15.073Z,47.19
2022-10-04T06:53:58.131Z,47.06
2022-10-04T06:56:33.306Z,47.70
2022-10-04T06:59:19.582Z,46.81
2022-10-04T07:01:51.425Z,46.58
2022-10-04T07:04:28.878Z,46.32
2022-10-04T07:07:35.967Z,46.19
2022-10-04T07:10:31.052Z,46.47
2022-10-04T07:13:14.433Z,46.33
2022-10-04T07:15:48.215Z,46.20
2022-10-04T07:18:32.750Z,46.17
2022-10-04T07:21:06.789Z,45.53
2022-10-04T07:23:40.706Z,45.84
2022-10-04T07:26:21.392Z,45.68
2022-10-04T07:29:08.573Z,45.95
2022-10-04T07:31:38.235Z,45.88
2022-10-04T07:34:12.498Z,45.96
2022-10-04T07:36:46.354Z,46.03
2022-10-04T07:39:18.838Z,45.77
2022-10-04T07:41:51.692Z,46.10
2022-10-04T07:44:26.443Z,46.01
2022-10-04T07:46:59.218Z,45.59
2022-10-04T07:49:27.358Z,46.06
2022-10-04T07:52:26.717Z,44.65
2022-10-04T07:55:07.543Z,44.82
2022-10-04T07:57:44.991Z,44.26
2022-10-04T08:00:18.701Z,44.35
2022-10-04T08:02:59.963Z,44.42
2022-10-04T08:05:36.571Z,44.17
2022-10-04T08:08:27.991Z,43.89
2022-10-04T08:11:17.226Z,44.17
2022-10-04T08:13:55.607Z,43.96
2022-10-04T08:16:35.651Z,44.13
2022-10-04T08:19:21.705Z,44.54
2022-10-04T08:22:00.146Z,44.54
2022-10-04T08:24:33.685Z,44.70
2022-10-04T08:27:24.268Z,44.18
2022-10-04T08:30:12.287Z,44.22
2022-10-04T08:32:55.876Z,44.30
2022-10-04T08:35:36.207Z,44.27
2022-10-04T08:38:27.284Z,44.85
2022-10-04T08:41:42.623Z,44.33
2022-10-04T08:44:43.076Z,44.69
2022-10-04T08:47:43.952Z,44.36
2022-10-04T08:50:39.799Z,45.16
2022-10-04T08:54:01.293Z,44.77
2022-10-04T08:56:46.628Z,45.32
2022-10-04T08:59:37.728Z,45.21
2022-10-04T09:02:34.630Z,45.03
2022-10-04T09:05:32.329Z,44.75
2022-10-04T09:08:59.218Z,44.42
2022-10-04T09:11:46.439Z,44.25
2022-10-04T09:14:51.178Z,43.94
2022-10-04T09:17:24.055Z,43.37
2022-10-04T09:20:09.071Z,43.76
2022-10-04T09:22:51.398Z,43.01
2022-10-04T09:25:58.254Z,43.39
2022-10-04T09:29:04.966Z,42.93
2022-10-04T09:32:04.371Z,42.51
2022-10-04T09:34:42.887Z,42.78
2022-10-04T09:37:30.293Z,41.43
2022-10-04T09:40:37.567Z,42.11
2022-10-04T09:43:24.803Z,42.45
2022-10-04T09:46:15.877Z,41.06
2022-10-04T09:48:58.291Z,40.61
2022-10-04T09:51:42.216Z,42.11
2022-10-04T09:54:33.501Z,42.08
2022-10-04T09:57:22.783Z,41.66
2022-10-04T10:00:10.438Z,41.90
2022-10-04T10:03:04.352Z,41.54
2022-10-04T10:05:53.686Z,41.47
2022-10-04T10:08:28.497Z,41.61
2022-10-04T10:11:25.371Z,40.64
2022-10-04T10:14:35.640Z,39.94
2022-10-04T10:17:16.068Z,40.28
2022-10-04T10:20:10.505Z,40.45
2022-10-04T10:22:59.632Z,39.90
2022-10-04T10:25:41.549Z,40.20
2022-10-04T10:28:31.810Z,39.59
2022-10-04T10:31:18.636Z,40.13
2022-10-04T10:34:33.729Z,40.44
2022-10-04T10:37:10.939Z,39.71
2022-10-04T10:40:03.982Z,39.13
2022-10-04T10:42:55.594Z,40.82
2022-10-04T10:45:45.773Z,39.52
2022-10-04T10:48:18.444Z,39.97
2022-10-04T10:51:02.700Z,40.98
2022-10-04T10:53:48.448Z,39.09
2022-10-04T10:56:35.304Z,39.02
2022-10-04T10:59:37.380Z,38.58
2022-10-04T11:02:49.512Z,38.61
2022-10-04T11:05:38.259Z,38.51
2022-10-04T11:08:22.117Z,38.22
2022-10-04T11:11:17.390Z,37.96
2022-10-04T11:14:22.531Z,37.33
2022-10-04T11:17:13.159Z,37.34
2022-10-04T11:20:27.726Z,37.35
2022-10-04T11:23:52.358Z,37.37
2022-10-04T11:26:53.755Z,37.08
2022-10-04T11:29:35.198Z,36.73
2022-10-04T11:33:03.147Z,37.53
2022-10-04T11:35:47.098Z,36.74
2022-10-04T11:38:44.632Z,36.45
2022-10-04T11:41:17.161Z,36.94
2022-10-04T11:43:59.290Z,37.49
2022-10-04T11:46:40.254Z,36.69
2022-10-04T11:49:26.810Z,35.94
2022-10-04T11:52:40.692Z,36.33
2022-10-04T11:55:43.941Z,36.11
2022-10-04T11:58:17.959Z,37.99
2022-10-04T12:01:21.891Z,36.57
2022-10-04T12:04:38.145Z,35.69
2022-10-04T12:07:26.526Z,35.46
2022-10-04T12:10:04.306Z,35.21
2022-10-04T12:12:55.006Z,35.11
2022-10-04T12:15:45.480Z,34.87
2022-10-04T12:18:40.304Z,34.70
2022-10-04T12:21:44.351Z,35.04
2022-10-04T12:24:42.555Z,34.70
2022-10-04T12:27:39.200Z,34.83
2022-10-04T12:30:27.025Z,34.61
2022-10-04T12:33:05.966Z,34.86
2022-10-04T12:35:48.859Z,34.89
2022-10-04T12:38:57.937Z,34.73
2022-10-04T12:41:39.707Z,34.69
2022-10-04T12:44:25.507Z,34.75
2022-10-04T12:47:03.974Z,34.75
2022-10-04T12:49:43.244Z,34.26
2022-10-04T12:52:16.819Z,35.13
2022-10-04T12:54:46.140Z,34.64
2022-10-04T12:57:45.734Z,34.37
2022-10-04T13:00:20.722Z,34.21
2022-10-04T13:03:29.224Z,34.37
2022-10-04T13:06:09.205Z,34.19
2022-10-04T13:08:58.765Z,33.78
2022-10-04T13:11:52.361Z,33.70
2022-10-04T13:14:41.036Z,33.71
2022-10-04T13:17:27.252Z,33.73
2022-10-04T13:20:21.812Z,33.08
2022-10-04T13:22:57.807Z,33.53
2022-10-04T13:25:46.452Z,33.25
2022-10-04T13:28:23.241Z,33.98
2022-10-04T13:31:00.634Z,33.82
2022-10-04T13:33:41.586Z,33.38
2022-10-04T13:36:16.795Z,33.42
2022-10-04T13:39:14.900Z,33.42
2022-10-04T13:42:12.335Z,33.58
2022-10-04T13:44:57.667Z,33.50
2022-10-04T13:47:55.304Z,33.56
2022-10-04T13:50:34.219Z,33.34
2022-10-04T13:53:33.715Z,33.36
2022-10-04T13:56:25.118Z,33.12
2022-10-04T13:59:04.644Z,33.53
2022-10-04T14:02:01.577Z,33.12
2022-10-04T14:04:54.468Z,33.38
2022-10-04T14:07:30.650Z,34.58
2022-10-04T14:10:22.240Z,33.35
2022-10-04T14:13:52.315Z,33.56
2022-10-04T14:16:41.664Z,32.52
2022-10-04T14:19:44.847Z,33.04
2022-10-04T14:22:27.360Z,34.35
2022-10-04T14:25:21.348Z,33.50
2022-10-04T14:28:38.085Z,33.90
2022-10-04T14:31:24.180Z,33.46
2022-10-04T14:34:11.534Z,33.38
2022-10-04T14:37:09.316Z,33.81
2022-10-04T14:40:01.043Z,33.82
2022-10-04T14:42:58.271Z,33.66
2022-10-04T14:45:40.041Z,34.04
2022-10-04T14:48:30.652Z,33.77
2022-10-04T14:51:21.607Z,33.66
2022-10-04T14:53:56.089Z,33.54
2022-10-04T14:56:59.236Z,33.79
2022-10-04T14:59:36.775Z,34.41
2022-10-04T15:02:48.112Z,34.14
2022-10-04T15:05:38.980Z,33.96
2022-10-04T15:08:37.353Z,33.74
2022-10-04T15:11:09.229Z,34.34
2022-10-04T15:13:42.296Z,34.17
2022-10-04T15:16:20.910Z,34.16
2022-10-04T15:18:55.793Z,33.98
2022-10-04T15:21:42.964Z,33.87
2022-10-04T15:24:28.549Z,33.71
2022-10-04T15:27:41.040Z,33.76
2022-10-04T15:30:20.089Z,33.85
2022-10-04T15:33:00.881Z,33.70
2022-10-04T15:35:39.389Z,34.19
2022-10-04T15:38:20.476Z,34.28
2022-10-04T15:41:02.942Z,34.07
2022-10-04T15:43:37.585Z,34.19
2022-10-04T15:46:32.535Z,34.18
2022-10-04T15:49:18.946Z,34.28
2022-10-04T15:52:03.456Z,34.02
2022-10-04T15:54:52.318Z,34.10
2022-10-04T15:57:31.458Z,34.43
2022-10-04T16:00:08.779Z,34.75
2022-10-04T16:02:59.913Z,34.81
2022-10-04T16:05:39.640Z,34.50
2022-10-04T16:08:37.044Z,34.72
2022-10-04T16:11:31.072Z,34.60
2022-10-04T16:14:28.853Z,34.66
2022-10-04T16:17:29.788Z,34.83
2022-10-04T16:20:16.420Z,34.94
2022-10-04T16:23:24.010Z,34.82
2022-10-04T16:25:54.560Z,35.18
2022-10-04T16:28:32.604Z,34.87
2022-10-04T16:31:24.687Z,34.93
2022-10-04T16:34:02.342Z,35.01
2022-10-04T16:36:46.175Z,35.39
2022-10-04T16:39:50.918Z,35.20
2022-10-04T16:42:23.747Z,35.52
2022-10-04T16:44:56.019Z,35.55
2022-10-04T16:47:28.362Z,35.71
2022-10-04T16:49:58.840Z,35.54
2022-10-04T16:52:48.022Z,35.93
2022-10-04T16:55:53.129Z,35.75
2022-10-04T16:58:49.800Z,35.88
2022-10-04T17:01:56.735Z,36.27
2022-10-04T17:04:55.600Z,36.54
2022-10-04T17:07:38.563Z,36.36
2022-10-04T17:10:21.054Z,37.03
2022-10-04T17:12:57.482Z,36.38
2022-10-04T17:15:41.449Z,36.63
2022-10-04T17:18:19.514Z,36.83
2022-10-04T17:20:56.696Z,36.65
2022-10-04T17:23:59.105Z,36.74
2022-10-04T17:26:51.420Z,37.17
2022-10-04T17:29:37.029Z,37.01
2022-10-04T17:32:14.797Z,37.13
2022-10-04T17:35:02.109Z,37.42
2022-10-04T17:37:39.587Z,37.63
2022-10-04T17:40:37.031Z,37.42
2022-10-04T17:43:15.633Z,38.03
2022-10-04T17:45:59.921Z,38.26
2022-10-04T17:48:50.363Z,38.08
2022-10-04T17:51:57.239Z,38.34
2022-10-04T17:54:46.367Z,38.32
2022-10-04T17:57:24.539Z,38.54
2022-10-04T17:59:59.396Z,38.56
2022-10-04T18:02:45.651Z,38.60
2022-10-04T18:05:19.726Z,38.66
2022-10-04T18:07:55.414Z,38.81
2022-10-04T18:10:29.422Z,38.75
2022-10-04T18:13:02.126Z,38.75
2022-10-04T18:15:31.218Z,39.51
2022-10-04T18:18:14.122Z,39.48
2022-10-04T18:20:46.868Z,39.52
2022-10-04T18:23:19.145Z,38.98
2022-10-04T18:25:49.540Z,39.12
2022-10-04T18:28:22.894Z,39.65
2022-10-04T18:31:00.068Z,39.55
2022-10-04T18:33:45.509Z,39.69
2022-10-04T18:36:17.736Z,39.93
2022-10-04T18:38:48.486Z,39.70
2022-10-04T18:41:20.074Z,40.27
2022-10-04T18:43:53.044Z,40.39
2022-10-04T18:46:22.785Z,39.95
2022-10-04T18:48:56.567Z,40.98
2022-10-04T18:51:32.042Z,40.45
2022-10-04T18:54:14.927Z,40.87
2022-10-04T18:56:55.713Z,41.31
2022-10-04T19:00:07.236Z,41.58
2022-10-04T19:02:44.508Z,41.44
2022-10-04T19:05:21.105Z,41.05
2022-10-04T19:08:01.792Z,41.33
2022-10-04T19:10:34.203Z,41.33
2022-10-04T19:13:13.581Z,41.49
2022-10-04T19:15:47.547Z,41.58
2022-10-04T19:18:34.730Z,41.95
2022-10-04T19:21:12.402Z,41.84
2022-10-04T19:23:50.284Z,41.88
2022-10-04T19:26:32.014Z,41.93
2022-10-04T19:29:11.649Z,42.43
2022-10-04T19:31:49.502Z,41.99
2022-10-04T19:34:26.296Z,41.93
2022-10-04T19:37:01.048Z,42.09
2022-10-04T19:39:40.938Z,42.17
2022-10-04T19:42:13.613Z,42.23
2022-10-04T19:44:56.940Z,42.43
2022-10-04T19:47:37.224Z,42.84
2022-10-04T19:50:16.237Z,42.56
2022-10-04T19:52:53.646Z,42.32
2022-10-04T19:55:30.462Z,42.73
2022-10-04T19:58:07.473Z,42.56
2022-10-04T20:00:37.645Z,42.51
2022-10-04T20:03:11.497Z,43.22
2022-10-04T20:05:44.840Z,42.86
2022-10-04T20:08:14.615Z,42.73
2022-10-04T20:10:44.879Z,42.79
2022-10-04T20:13:23.756Z,43.61
2022-10-04T20:15:53.880Z,43.07
2022-10-04T20:18:57.783Z,43.79
2022-10-04T20:21:28.623Z,43.31
2022-10-04T20:24:00.617Z,43.04
2022-10-04T20:26:54.380Z,44.06
2022-10-04T20:30:05.346Z,43.86
2022-10-04T20:32:55.991Z,43.82
2022-10-04T20:36:06.842Z,44.28
2022-10-04T20:38:54.207Z,44.25
2022-10-04T20:42:03.044Z,43.99
2022-10-04T20:44:55.264Z,44.04
2022-10-04T20:47:31.788Z,44.28
2022-10-04T20:50:01.629Z,43.92
2022-10-04T20:52:32.371Z,43.63
2022-10-04T20:55:01.953Z,43.64
2022-10-04T20:57:31.825Z,44.31
2022-10-04T21:00:00.175Z,43.86
2022-10-04T21:02:28.914Z,43.84
2022-10-04T21:05:13.634Z,45.25
2022-10-04T21:07:41.613Z,44.50
2022-10-04T21:10:18.591Z,45.21
2022-10-04T21:12:49.528Z,44.34
2022-10-04T21:15:22.678Z,45.33
2022-10-04T21:18:02.758Z,45.56
2022-10-04T21:20:45.378Z,45.56
2022-10-04T21:23:24.096Z,45.26
2022-10-04T21:25:51.949Z,45.01
2022-10-04T21:28:42.248Z,45.39
2022-10-04T21:31:10.491Z,44.61
2022-10-04T21:33:38.657Z,45.06
2022-10-04T21:36:09.845Z,45.49
2022-10-04T21:38:37.971Z,44.61
2022-10-04T21:41:05.861Z,44.69
2022-10-04T21:43:33.810Z,44.87
2022-10-04T21:46:03.007Z,44.87
2022-10-04T21:48:30.941Z,45.13
2022-10-04T21:50:58.689Z,44.97
2022-10-04T21:53:26.528Z,44.93
2022-10-04T21:55:54.310Z,44.91
2022-10-04T21:58:22.207Z,44.97
2022-10-04T22:00:50.433Z,45.01
2022-10-04T22:03:19.681Z,44.59
2022-10-04T22:05:47.456Z,44.94
2022-10-04T22:08:15.359Z,45.07
2022-10-04T22:10:43.446Z,45.05
2022-10-04T22:13:11.256Z,44.92
2022-10-04T22:15:39.053Z,44.89
2022-10-04T22:18:07.130Z,45.06
2022-10-04T22:20:37.907Z,44.90
2022-10-04T22:23:12.146Z,45.07
2022-10-04T22:25:41.345Z,45.04
2022-10-04T22:28:19.085Z,45.24
2022-10-04T22:30:47.285Z,44.72
2022-10-04T22:33:28.666Z,45.18
2022-10-04T22:36:00.097Z,44.59
2022-10-04T22:38:27.947Z,44.69
2022-10-04T22:40:55.747Z,44.77
2022-10-04T22:43:23.689Z,44.61
2022-10-04T22:45:51.969Z,44.33
2022-10-04T22:48:19.913Z,44.70
2022-10-04T22:50:47.798Z,44.76
2022-10-04T22:53:20.692Z,44.42
2022-10-04T22:55:48.869Z,44.35
2022-10-04T22:58:17.428Z,44.29
2022-10-04T23:00:46.367Z,44.84
2022-10-04T23:03:26.050Z,45.04
2022-10-04T23:05:54.006Z,44.73
2022-10-04T23:08:23.112Z,44.25
2022-10-04T23:10:54.811Z,44.92
2022-10-04T23:13:24.829Z,44.24
2022-10-04T23:15:53.275Z,44.32
2022-10-04T23:18:21.327Z,44.80
2022-10-04T23:20:52.752Z,44.28
2022-10-04T23:23:22.181Z,44.49
2022-10-04T23:25:52.039Z,44.42
2022-10-04T23:28:20.375Z,44.63
2022-10-04T23:30:56.922Z,44.48
2022-10-04T23:33:25.210Z,44.34
2022-10-04T23:35:55.186Z,44.51
2022-10-04T23:38:24.411Z,44.93
2022-10-04T23:40:53.579Z,45.07
2022-10-04T23:43:25.000Z,44.50
2022-10-04T23:45:53.294Z,45.10
2022-10-04T23:48:25.230Z,45.03
2022-10-04T23:50:55.130Z,44.58
2022-10-04T23:53:26.716Z,45.08
2022-10-04T23:55:57.850Z,44.71
2022-10-04T23:58:31.006Z,45.13
